createdAt,value
2023-08-29T00:02:29.491Z,101409.75
2023-08-29T00:05:11.039Z,101416.69
2023-08-29T00:10:42.363Z,101404.38
2023-08-29T00:13:25.406Z,101400.88
2023-08-29T00:16:11.194Z,101407.84
2023-08-29T00:18:54.363Z,101404.25
2023-08-29T00:21:41.432Z,101403.34
2023-08-29T00:24:25.195Z,101398.13
2023-08-29T00:27:04.902Z,101390.19
2023-08-29T00:29:42.583Z,101382.22
2023-08-29T00:32:21.803Z,101392.81
2023-08-29T00:35:04.849Z,101393.66
2023-08-29T00:37:46.478Z,101394.47
2023-08-29T00:40:28.310Z,101388.31
2023-08-29T00:43:13.895Z,101387.41
2023-08-29T00:45:59.686Z,101378.59
2023-08-29T00:51:39.434Z,101378.50
2023-08-29T00:54:22.282Z,101379.31
2023-08-29T00:57:02.330Z,101376.69
2023-08-29T00:59:42.583Z,101375.72
2023-08-29T01:02:20.928Z,101375.69
2023-08-29T01:05:01.050Z,101378.31
2023-08-29T01:10:32.819Z,101383.50
2023-08-29T01:13:25.607Z,101375.56
2023-08-29T01:16:08.273Z,101378.19
2023-08-29T01:18:51.178Z,101373.78
2023-08-29T01:22:05.875Z,101378.09
2023-08-29T01:24:56.650Z,101383.38
2023-08-29T01:27:42.178Z,101376.38
2023-08-29T01:30:25.584Z,101377.19
2023-08-29T01:33:09.148Z,101370.19
2023-08-29T01:35:59.508Z,101369.25
2023-08-29T01:38:42.321Z,101369.22
2023-08-29T01:41:26.357Z,101372.72
2023-08-29T01:44:19.469Z,101377.09
2023-08-29T01:47:03.674Z,101373.53
2023-08-29T01:49:47.536Z,101378.78
2023-08-29T01:52:26.949Z,101376.19
2023-08-29T01:55:09.437Z,101371.81
2023-08-29T01:57:51.255Z,101375.28
2023-08-29T02:00:37.219Z,101377.88
2023-08-29T02:03:19.566Z,101377.88
2023-08-29T02:06:04.650Z,101376.09
2023-08-29T02:08:45.364Z,101370.84
2023-08-29T02:11:28.013Z,101369.94
2023-08-29T02:14:12.634Z,101370.81
2023-08-29T02:19:48.517Z,101367.22
2023-08-29T02:22:32.582Z,101361.97
2023-08-29T02:25:14.885Z,101365.44
2023-08-29T02:30:50.016Z,101362.75
2023-08-29T02:33:35.040Z,101359.13
2023-08-29T02:36:19.733Z,101363.63
2023-08-29T02:39:02.655Z,101368.81
2023-08-29T02:41:48.894Z,101361.75
2023-08-29T02:47:24.640Z,101362.69
2023-08-29T02:50:10.071Z,101356.53
2023-08-29T02:52:53.333Z,101352.91
2023-08-29T02:58:27.614Z,101354.56
2023-08-29T03:01:20.336Z,101360.59
2023-08-29T03:04:05.747Z,101359.75
2023-08-29T03:06:52.851Z,101359.75
2023-08-29T03:09:40.605Z,101362.38
2023-08-29T03:15:14.469Z,101350.09
2023-08-29T03:18:00.707Z,101349.25
2023-08-29T03:20:56.658Z,101345.75
2023-08-29T03:23:42.949Z,101351.00
2023-08-29T03:26:23.368Z,101349.22
2023-08-29T03:29:10.920Z,101348.31
2023-08-29T03:31:57.012Z,101346.56
2023-08-29T03:34:37.996Z,101353.44
2023-08-29T03:37:20.856Z,101343.66
2023-08-29T03:40:14.212Z,101350.69
2023-08-29T03:43:00.448Z,101330.50
2023-08-29T03:45:55.840Z,101328.69
2023-08-29T03:48:40.672Z,101326.97
2023-08-29T03:51:27.013Z,101327.81
2023-08-29T03:54:11.508Z,101326.81
2023-08-29T04:02:40.301Z,101322.69
2023-08-29T04:08:23.378Z,101312.97
2023-08-29T04:11:02.571Z,101322.50
2023-08-29T04:13:46.280Z,101323.41
2023-08-29T04:16:27.201Z,101327.84
2023-08-29T04:19:16.849Z,101336.47
2023-08-29T04:24:52.102Z,101330.97
2023-08-29T04:27:36.046Z,101323.22
2023-08-29T04:30:19.821Z,101330.22
2023-08-29T04:33:04.032Z,101320.53
2023-08-29T04:35:46.273Z,101322.34
2023-08-29T04:41:19.836Z,101325.88
2023-08-29T04:44:08.057Z,101324.94
2023-08-29T04:46:50.321Z,101326.56
2023-08-29T04:49:29.838Z,101326.41
2023-08-29T04:52:10.619Z,101334.13
2023-08-29T04:54:56.534Z,101336.69
2023-08-29T04:57:37.753Z,101334.16
2023-08-29T05:06:41.907Z,101345.59
2023-08-29T05:09:31.399Z,101343.16
2023-08-29T05:12:13.750Z,101349.47
2023-08-29T05:14:53.277Z,101351.34
2023-08-29T05:17:34.268Z,101348.91
2023-08-29T05:20:15.563Z,101345.59
2023-08-29T05:23:02.196Z,101344.00
2023-08-29T05:25:39.106Z,101355.72
2023-08-29T05:28:19.334Z,101362.06
2023-08-29T05:31:16.257Z,101357.22
2023-08-29T05:33:57.365Z,101364.22
2023-08-29T05:36:39.764Z,101361.75
2023-08-29T05:39:22.959Z,101365.31
2023-08-29T05:41:58.440Z,101363.63
2023-08-29T05:44:43.725Z,101360.19
2023-08-29T05:47:19.961Z,101361.97
2023-08-29T05:50:07.857Z,101368.22
2023-08-29T05:52:43.987Z,101365.69
2023-08-29T05:55:22.327Z,101363.16
2023-08-29T05:57:56.919Z,101357.91
2023-08-29T06:00:35.849Z,101359.63
2023-08-29T06:05:59.677Z,101366.69
2023-08-29T06:08:34.518Z,101364.94
2023-08-29T06:11:21.450Z,101372.81
2023-08-29T06:13:59.068Z,101365.00
2023-08-29T06:16:36.375Z,101370.31
2023-08-29T06:19:15.105Z,101366.91
2023-08-29T06:21:52.286Z,101370.47
2023-08-29T06:24:28.131Z,101373.16
2023-08-29T06:27:04.900Z,101372.28
2023-08-29T06:29:40.758Z,101372.31
2023-08-29T06:32:17.075Z,101370.66
2023-08-29T06:34:53.757Z,101376.91
2023-08-29T06:37:38.577Z,101384.09
2023-08-29T06:40:21.013Z,101389.44
2023-08-29T06:43:01.731Z,101383.38
2023-08-29T06:45:53.653Z,101389.63
2023-08-29T06:48:31.848Z,101381.78
2023-08-29T06:51:07.258Z,101395.91
2023-08-29T06:53:43.007Z,101390.72
2023-08-29T06:56:27.792Z,101386.38
2023-08-29T06:59:06.369Z,101373.19
2023-08-29T07:01:45.413Z,101372.34
2023-08-29T07:04:20.576Z,101376.72
2023-08-29T07:07:06.018Z,101375.00
2023-08-29T07:09:43.899Z,101374.13
2023-08-29T07:12:20.281Z,101375.03
2023-08-29T07:15:01.047Z,101375.97
2023-08-29T07:17:38.906Z,101371.59
2023-08-29T07:20:17.614Z,101376.94
2023-08-29T07:22:54.640Z,101370.78
2023-08-29T07:25:46.116Z,101376.97
2023-08-29T07:28:22.607Z,101379.59
2023-08-29T07:30:57.913Z,101382.25
2023-08-29T07:33:35.025Z,101390.16
2023-08-29T07:36:13.967Z,101392.78
2023-08-29T07:38:50.450Z,101383.13
2023-08-29T07:41:23.724Z,101387.53
2023-08-29T07:44:10.314Z,101385.78
2023-08-29T07:47:03.149Z,101385.75
2023-08-29T07:49:54.449Z,101391.91
2023-08-29T07:52:31.203Z,101393.66
2023-08-29T07:55:16.753Z,101399.84
2023-08-29T07:57:55.084Z,101398.97
2023-08-29T08:00:31.283Z,101399.81
2023-08-29T08:03:07.413Z,101407.78
2023-08-29T08:05:42.344Z,101405.13
2023-08-29T08:08:20.932Z,101405.97
2023-08-29T08:15:07.334Z,101389.16
2023-08-29T08:18:07.676Z,101388.25
2023-08-29T08:21:04.147Z,101389.09
2023-08-29T08:26:55.637Z,101389.06
2023-08-29T08:29:47.709Z,101392.56
2023-08-29T08:32:50.260Z,101385.50
2023-08-29T08:35:57.452Z,101381.94
2023-08-29T08:38:54.523Z,101382.81
2023-08-29T08:41:44.073Z,101388.09
2023-08-29T08:44:34.039Z,101388.97
2023-08-29T08:47:28.820Z,101388.06
2023-08-29T08:50:42.282Z,101379.22
2023-08-29T08:53:33.180Z,101384.50
2023-08-29T08:56:21.463Z,101385.34
2023-08-29T08:59:08.929Z,101382.66
2023-08-29T09:05:02.847Z,101377.19
2023-08-29T09:08:02.576Z,101371.88
2023-08-29T09:10:57.319Z,101380.66
2023-08-29T09:13:49.651Z,101374.44
2023-08-29T09:16:45.606Z,101366.41
2023-08-29T09:19:37.729Z,101361.03
2023-08-29T09:22:29.607Z,101359.94
2023-08-29T09:25:23.690Z,101359.84
2023-08-29T09:28:18.151Z,101367.00
2023-08-29T09:34:22.541Z,101361.16
2023-08-29T09:37:15.839Z,101362.56
2023-08-29T09:40:35.292Z,101359.00
2023-08-29T09:43:23.813Z,101351.06
2023-08-29T09:46:26.483Z,101357.09
2023-08-29T09:52:25.168Z,101349.94
2023-08-29T09:55:21.923Z,101350.78
2023-08-29T09:58:18.436Z,101350.81
2023-08-29T10:01:23.945Z,101359.81
2023-08-29T10:04:25.428Z,101359.00
2023-08-29T10:07:18.917Z,101367.78
2023-08-29T10:10:14.001Z,101351.78
2023-08-29T10:13:09.647Z,101361.41
2023-08-29T10:16:03.966Z,101361.41
2023-08-29T10:18:58.907Z,101350.81
2023-08-29T10:21:56.244Z,101356.25
2023-08-29T10:24:56.562Z,101352.78
2023-08-29T10:27:52.380Z,101353.69
2023-08-29T10:30:54.915Z,101349.28
2023-08-29T10:33:51.843Z,101350.03
2023-08-29T10:36:43.615Z,101346.28
2023-08-29T10:39:39.111Z,101347.09
2023-08-29T10:42:36.685Z,101345.41
2023-08-29T10:45:32.504Z,101353.28
2023-08-29T10:48:26.770Z,101349.59
2023-08-29T10:51:32.001Z,101343.50
2023-08-29T10:54:31.373Z,101342.16
2023-08-29T10:57:42.205Z,101333.78
2023-08-29T11:00:52.700Z,101333.31
2023-08-29T11:04:05.445Z,101329.63
2023-08-29T11:07:17.140Z,101328.66
2023-08-29T11:10:34.490Z,101326.69
2023-08-29T11:13:34.888Z,101327.44
2023-08-29T11:16:29.361Z,101329.41
2023-08-29T11:19:39.855Z,101329.59
2023-08-29T11:22:51.073Z,101322.56
2023-08-29T11:25:45.365Z,101322.91
2023-08-29T11:28:44.972Z,101320.38
2023-08-29T11:31:36.710Z,101318.59
2023-08-29T11:34:38.423Z,101329.72
2023-08-29T11:37:30.473Z,101334.34
2023-08-29T11:40:36.828Z,101330.03
2023-08-29T11:44:39.093Z,101331.13
2023-08-29T11:46:54.408Z,101333.13
2023-08-29T11:49:50.517Z,101335.50
2023-08-29T11:52:43.390Z,101338.22
2023-08-29T11:55:49.569Z,101329.88
2023-08-29T11:59:03.651Z,101323.28
2023-08-29T12:05:06.004Z,101315.00
2023-08-29T12:08:13.232Z,101312.78
2023-08-29T12:11:17.237Z,101316.84
2023-08-29T12:14:28.863Z,101317.72
2023-08-29T12:20:46.907Z,101312.53
2023-08-29T12:32:52.402Z,101306.56
2023-08-29T12:39:05.772Z,101297.47
2023-08-29T12:45:05.635Z,101298.09
2023-08-29T12:48:02.693Z,101303.59
2023-08-29T13:06:42.354Z,101287.66
2023-08-29T13:09:38.435Z,101274.97
2023-08-29T13:12:40.180Z,101269.16
2023-08-29T13:15:45.283Z,101263.16
2023-08-29T13:18:49.954Z,101258.88
2023-08-29T13:28:07.070Z,101241.84
2023-08-29T13:31:11.962Z,101233.38
2023-08-29T13:37:24.723Z,101228.47
2023-08-29T13:43:33.918Z,101223.88
2023-08-29T13:50:00.763Z,101221.88
2023-08-29T13:53:02.139Z,101231.03
2023-08-29T13:56:10.639Z,101229.56
2023-08-29T13:59:14.966Z,101236.72
2023-08-29T14:02:21.012Z,101225.22
2023-08-29T14:05:35.089Z,101233.06
2023-08-29T14:08:43.354Z,101233.97
2023-08-29T14:24:27.603Z,101224.81
2023-08-29T14:30:42.955Z,101209.03
2023-08-29T14:40:12.909Z,101207.84
2023-08-29T14:49:31.687Z,101196.78
2023-08-29T14:59:07.049Z,101206.19
2023-08-29T15:08:24.657Z,101202.66
2023-08-29T15:14:40.131Z,101194.75
2023-08-29T15:18:07.312Z,101204.28
2023-08-29T15:21:18.698Z,101201.81
2023-08-29T15:24:24.009Z,101202.72
2023-08-29T15:30:37.237Z,101204.56
2023-08-29T15:33:46.434Z,101198.69
2023-08-29T15:37:09.757Z,101199.38
2023-08-29T15:46:29.448Z,101201.13
2023-08-29T15:55:50.637Z,101208.22
2023-08-29T15:58:56.016Z,101207.25
2023-08-29T16:02:02.586Z,101206.56
2023-08-29T16:05:05.634Z,101213.84
2023-08-29T16:08:10.939Z,101203.63
2023-08-29T16:17:23.342Z,101199.09
2023-08-29T16:20:31.512Z,101204.78
2023-08-29T16:23:36.966Z,101210.09
2023-08-29T16:26:45.186Z,101207.78
2023-08-29T16:29:49.327Z,101214.81
2023-08-29T16:35:54.760Z,101225.75
2023-08-29T16:38:53.846Z,101225.25
2023-08-29T16:44:48.621Z,101215.41
2023-08-29T16:50:53.365Z,101229.75
2023-08-29T17:00:11.912Z,101234.38
2023-08-29T17:03:12.023Z,101236.31
2023-08-29T17:06:17.689Z,101230.16
2023-08-29T17:09:20.172Z,101227.66
2023-08-29T17:12:21.414Z,101226.72
2023-08-29T17:15:21.268Z,101226.69
2023-08-29T17:18:18.986Z,101230.22
2023-08-29T17:21:14.178Z,101231.97
2023-08-29T17:24:18.403Z,101229.31
2023-08-29T17:33:30.000Z,101226.88
2023-08-29T17:36:34.706Z,101226.16
2023-08-29T17:42:43.433Z,101225.41
2023-08-29T17:45:49.024Z,101225.44
2023-08-29T17:48:45.663Z,101222.94
2023-08-29T17:51:45.797Z,101224.88
2023-08-29T17:54:47.644Z,101230.25
2023-08-29T17:57:43.076Z,101232.25
2023-08-29T18:00:43.624Z,101232.25
2023-08-29T18:03:36.219Z,101234.91
2023-08-29T18:06:41.942Z,101237.69
2023-08-29T18:09:36.148Z,101236.16
2023-08-29T18:12:33.868Z,101240.66
2023-08-29T18:15:34.006Z,101247.81
2023-08-29T18:18:38.192Z,101255.81
2023-08-29T18:21:31.494Z,101250.53
2023-08-29T18:24:32.976Z,101250.56
2023-08-29T18:27:28.713Z,101251.56
2023-08-29T18:30:24.831Z,101252.47
2023-08-29T18:33:18.829Z,101255.19
2023-08-29T18:39:27.328Z,101249.03
2023-08-29T18:42:25.732Z,101252.59
2023-08-29T18:45:25.509Z,101248.25
2023-08-29T18:48:25.452Z,101253.56
2023-08-29T18:54:24.249Z,101257.16
2023-08-29T18:57:20.467Z,101249.25
2023-08-29T19:00:20.440Z,101240.63
2023-08-29T19:03:20.776Z,101238.84
2023-08-29T19:06:36.793Z,101246.88
2023-08-29T19:09:34.930Z,101243.41
2023-08-29T19:15:34.508Z,101240.03
2023-08-29T19:18:36.492Z,101239.19
2023-08-29T19:24:38.711Z,101248.03
2023-08-29T19:27:32.375Z,101247.97
2023-08-29T19:30:34.592Z,101259.50
2023-08-29T19:33:49.672Z,101254.22
2023-08-29T19:36:47.612Z,101251.56
2023-08-29T19:39:44.237Z,101256.88
2023-08-29T19:42:46.033Z,101257.75
2023-08-29T19:45:42.075Z,101260.44
2023-08-29T19:51:46.464Z,101261.28
2023-08-29T19:54:39.492Z,101259.56
2023-08-29T19:57:34.024Z,101263.09
2023-08-29T20:00:28.828Z,101262.28
2023-08-29T20:03:18.726Z,101262.28
2023-08-29T20:06:10.966Z,101257.88
2023-08-29T20:09:01.019Z,101258.75
2023-08-29T20:11:51.207Z,101256.97
2023-08-29T20:14:49.496Z,101262.28
2023-08-29T20:17:37.724Z,101260.50
2023-08-29T20:20:32.464Z,101255.22
2023-08-29T20:23:22.229Z,101260.56
2023-08-29T20:26:18.521Z,101263.22
2023-08-29T20:29:12.042Z,101262.34
2023-08-29T20:32:06.345Z,101261.47
2023-08-29T20:34:56.811Z,101254.44
2023-08-29T20:37:50.168Z,101252.69
2023-08-29T20:40:39.813Z,101256.22
2023-08-29T20:43:34.887Z,101252.72
2023-08-29T20:46:31.800Z,101255.41
2023-08-29T20:49:25.554Z,101261.56
2023-08-29T20:52:24.616Z,101258.06
2023-08-29T20:55:16.075Z,101254.53
2023-08-29T20:58:14.365Z,101251.00
2023-08-29T21:01:14.317Z,101241.34
2023-08-29T21:04:04.220Z,101251.03
2023-08-29T21:06:53.145Z,101252.81
2023-08-29T21:09:46.477Z,101248.41
2023-08-29T21:12:37.351Z,101256.34
2023-08-29T21:15:29.212Z,101244.91
2023-08-29T21:18:20.366Z,101244.03
2023-08-29T21:21:19.641Z,101238.78
2023-08-29T21:24:07.453Z,101241.38
2023-08-29T21:26:57.346Z,101236.13
2023-08-29T21:29:47.945Z,101231.72
2023-08-29T21:35:46.273Z,101237.00
2023-08-29T21:38:39.931Z,101241.41
2023-08-29T21:41:39.837Z,101234.38
2023-08-29T21:44:38.347Z,101237.00
2023-08-29T21:53:44.841Z,101239.66
2023-08-29T21:56:47.373Z,101224.69
2023-08-29T21:59:50.175Z,101225.59
2023-08-29T22:02:44.751Z,101228.22
2023-08-29T22:08:42.992Z,101230.00
2023-08-29T22:11:40.043Z,101228.19
2023-08-29T22:14:31.786Z,101224.69
2023-08-29T22:20:26.968Z,101222.03
2023-08-29T22:23:26.883Z,101222.94
2023-08-29T22:33:10.640Z,101215.88
2023-08-29T22:36:14.015Z,101207.09
2023-08-29T22:39:16.482Z,101215.91
2023-08-29T22:42:11.537Z,101212.38
2023-08-29T22:45:06.964Z,101209.72
2023-08-29T22:48:03.370Z,101204.44
2023-08-29T22:50:58.927Z,101202.69
2023-08-29T22:53:56.996Z,101202.69
2023-08-29T22:56:57.828Z,101194.78
2023-08-29T22:59:55.245Z,101199.16
2023-08-29T23:02:55.157Z,101201.78
2023-08-29T23:05:54.304Z,101195.66
2023-08-29T23:08:47.534Z,101189.47
2023-08-29T23:17:44.954Z,101187.66
2023-08-29T23:20:41.754Z,101195.56
2023-08-29T23:23:41.099Z,101191.16
2023-08-29T23:26:40.469Z,101186.75
2023-08-29T23:29:35.867Z,101186.75
2023-08-29T23:35:39.796Z,101185.00
2023-08-29T23:38:36.586Z,101183.16
2023-08-29T23:41:37.388Z,101182.25
2023-08-29T23:44:37.368Z,101184.88
2023-08-29T23:47:31.477Z,101183.13
2023-08-29T23:50:35.485Z,101178.72
2023-08-29T23:53:32.201Z,101178.69
2023-08-29T23:56:32.130Z,101186.59
2023-08-29T23:59:28.261Z,101174.25
